Time;durP1;ratioP1;P1;durP2;ratioP2;P2;SDS_P1;SDS_P2;PMS_P1;PMS_P2;Temp;Humidity;BMP_temperature;BMP_pressure;BME280_temperature;BME280_humidity;BME280_pressure;Samples;Min_cycle;Max_cycle;Signal;HPM_P1;HPM_P2
2020/12/24 00:02:15;;;;;;;1.10;0.80;;;16.10;62.00;;;;;;5011843;28;20244;-41
2020/12/24 00:04:40;;;;;;;0.80;0.80;;;16.10;61.70;;;;;;5012502;28;20202;-41
2020/12/24 00:07:06;;;;;;;2.10;0.90;;;16.10;61.40;;;;;;5011489;28;20198;-42
2020/12/24 00:09:32;;;;;;;1.33;0.87;;;16.20;61.40;;;;;;5012146;28;20243;-42
2020/12/24 00:11:57;;;;;;;1.00;0.80;;;16.10;60.90;;;;;;5011698;28;20209;-42
2020/12/24 00:14:23;;;;;;;2.13;0.83;;;15.80;60.10;;;;;;5012417;28;20194;-42
2020/12/24 00:16:49;;;;;;;1.07;0.90;;;15.70;60.70;;;;;;5009823;28;20222;-41
2020/12/24 00:19:14;;;;;;;0.63;0.63;;;15.40;60.50;;;;;;5011971;28;20258;-42
2020/12/24 00:21:40;;;;;;;1.63;0.80;;;14.90;59.00;;;;;;5011496;28;20460;-42
2020/12/24 00:24:06;;;;;;;0.70;0.70;;;14.70;59.40;;;;;;5012325;28;20222;-41
2020/12/24 00:26:31;;;;;;;0.73;0.70;;;14.60;58.70;;;;;;5011091;28;20740;-41
2020/12/24 00:28:57;;;;;;;1.10;0.70;;;14.40;56.90;;;;;;5011777;28;20202;-42
2020/12/24 00:31:23;;;;;;;0.60;0.60;;;14.50;57.20;;;;;;5011692;28;20197;-41
2020/12/24 00:33:49;;;;;;;1.03;0.70;;;14.60;57.00;;;;;;5012240;28;20198;-41
2020/12/24 00:36:15;;;;;;;0.70;0.70;;;14.50;56.10;;;;;;5011450;28;20940;-42
2020/12/24 00:38:40;;;;;;;0.90;0.80;;;14.60;56.40;;;;;;5011543;28;20234;-42
2020/12/24 00:41:07;;;;;;;1.33;0.83;;;14.70;56.00;;;;;;5011831;28;20225;-42
2020/12/24 00:43:33;;;;;;;0.93;0.83;;;14.80;55.70;;;;;;5009684;28;20198;-42
2020/12/24 00:45:59;;;;;;;0.60;0.60;;;15.00;56.00;;;;;;5011708;28;20425;-41
2020/12/24 00:48:24;;;;;;;0.80;0.70;;;14.80;55.40;;;;;;5006451;28;20873;-42
2020/12/24 00:50:50;;;;;;;0.80;0.80;;;14.80;55.70;;;;;;5009655;28;20862;-42
2020/12/24 00:53:15;;;;;;;1.47;0.97;;;14.80;55.80;;;;;;5011159;28;20280;-42
2020/12/24 00:55:41;;;;;;;0.80;0.70;;;15.00;56.00;;;;;;5011708;28;20776;-42
2020/12/24 00:58:07;;;;;;;0.87;0.77;;;14.90;56.10;;;;;;5010637;28;20225;-41
2020/12/24 01:00:32;;;;;;;0.60;0.60;;;14.90;56.20;;;;;;5011482;28;20189;-42
2020/12/24 01:02:58;;;;;;;0.90;0.60;;;15.00;56.70;;;;;;5010814;28;20206;-41
2020/12/24 01:05:23;;;;;;;1.00;0.90;;;14.90;56.50;;;;;;5011550;28;20221;-41
2020/12/24 01:07:49;;;;;;;1.17;0.77;;;14.90;56.90;;;;;;5011070;28;20277;-42
2020/12/24 01:10:15;;;;;;;0.67;0.60;;;14.80;57.00;;;;;;5009635;28;20201;-42
2020/12/24 01:12:40;;;;;;;0.60;0.60;;;14.70;57.10;;;;;;5010509;28;20225;-41
2020/12/24 01:15:10;;;;;;;2.10;1.00;;;14.80;57.10;;;;;;5011318;28;20659;-42
2020/12/24 01:17:37;;;;;;;0.60;0.60;;;15.00;56.90;;;;;;5010388;28;20190;-41
2020/12/24 01:20:07;;;;;;;0.73;0.63;;;15.00;57.20;;;;;;5010673;28;20844;-41
2020/12/24 01:22:33;;;;;;;2.57;0.90;;;14.90;57.30;;;;;;5010943;28;20453;-42
2020/12/24 01:25:00;;;;;;;0.80;0.50;;;14.80;58.60;;;;;;5011343;28;20429;-41
2020/12/24 01:27:25;;;;;;;0.87;0.80;;;14.70;59.30;;;;;;5010282;28;20448;-41
2020/12/24 01:29:51;;;;;;;1.03;0.90;;;14.60;59.10;;;;;;5011232;28;20418;-41
2020/12/24 01:32:17;;;;;;;1.80;0.70;;;14.30;59.60;;;;;;5010710;28;20602;-41
2020/12/24 01:34:43;;;;;;;0.83;0.50;;;14.40;59.90;;;;;;5011041;28;20653;-41
2020/12/24 01:37:08;;;;;;;1.40;0.90;;;14.60;60.50;;;;;;5008669;28;20453;-41
2020/12/24 01:39:34;;;;;;;1.37;0.70;;;14.70;60.30;;;;;;5010997;28;20228;-41
2020/12/24 01:42:00;;;;;;;2.13;0.80;;;14.70;60.50;;;;;;5010293;28;20194;-41
2020/12/24 01:44:25;;;;;;;2.37;0.90;;;14.50;61.20;;;;;;5011050;28;20241;-41
2020/12/24 01:46:52;;;;;;;1.13;0.90;;;14.50;61.60;;;;;;5010266;28;20197;-41
2020/12/24 01:49:18;;;;;;;1.67;0.70;;;14.60;61.80;;;;;;5002378;28;20236;-41
2020/12/24 01:51:51;;;;;;;1.10;1.00;;;14.80;61.80;;;;;;5010361;28;20421;-42
2020/12/24 01:54:18;;;;;;;1.63;0.70;;;15.00;61.40;;;;;;5010928;28;20943;-42
2020/12/24 01:56:44;;;;;;;1.10;1.00;;;15.10;60.90;;;;;;5010022;28;20433;-42
2020/12/24 01:59:15;;;;;;;1.57;0.80;;;15.10;60.70;;;;;;5010988;28;20550;-41
2020/12/24 02:01:42;;;;;;;0.90;0.67;;;15.20;60.60;;;;;;5010369;28;20862;-41
2020/12/24 02:04:09;;;;;;;0.80;0.63;;;15.10;60.60;;;;;;5008111;28;20806;-41
2020/12/24 02:06:35;;;;;;;0.70;0.70;;;15.00;60.70;;;;;;5009997;28;20417;-41
2020/12/24 02:09:00;;;;;;;4.40;1.00;;;14.80;61.10;;;;;;5010781;28;20436;-42
2020/12/24 02:11:26;;;;;;;1.63;0.80;;;14.90;61.40;;;;;;5010421;28;20200;-44
2020/12/24 02:13:52;;;;;;;1.43;0.60;;;14.70;61.50;;;;;;5010660;28;20612;-41
2020/12/24 02:16:17;;;;;;;0.90;0.67;;;14.50;62.20;;;;;;5010130;28;20222;-41
2020/12/24 02:18:43;;;;;;;0.60;0.60;;;14.40;62.40;;;;;;5010618;28;20226;-41
2020/12/24 02:21:09;;;;;;;1.43;1.07;;;13.70;60.70;;;;;;5010822;28;20572;-41
2020/12/24 02:23:34;;;;;;;0.73;0.70;;;13.10;60.90;;;;;;5009943;28;20190;-41
2020/12/24 02:26:00;;;;;;;1.90;0.70;;;13.10;61.80;;;;;;5010804;28;20193;-41
2020/12/24 02:28:25;;;;;;;3.73;0.70;;;13.20;62.30;;;;;;5010078;28;20229;-41
2020/12/24 02:30:51;;;;;;;2.60;0.90;;;13.20;61.50;;;;;;5010120;28;20575;-41
2020/12/24 02:33:17;;;;;;;0.70;0.63;;;13.40;60.70;;;;;;5013458;28;20202;-41
2020/12/24 02:35:42;;;;;;;3.33;0.80;;;13.80;60.80;;;;;;5014245;28;20229;-41
2020/12/24 02:38:08;;;;;;;0.97;0.60;;;13.80;59.60;;;;;;5013489;28;20256;-42
2020/12/24 02:40:33;;;;;;;0.83;0.70;;;13.90;59.10;;;;;;5014304;28;20190;-41
2020/12/24 02:42:59;;;;;;;0.80;0.80;;;13.80;57.30;;;;;;5013420;28;20201;-41
2020/12/24 02:45:24;;;;;;;0.80;0.60;;;13.80;58.50;;;;;;5013711;28;20194;-42
2020/12/24 02:47:50;;;;;;;1.27;0.60;;;13.70;57.80;;;;;;5013090;28;20202;-41
2020/12/24 02:50:15;;;;;;;1.10;0.60;;;13.50;57.60;;;;;;5007201;28;20253;-41
2020/12/24 02:52:41;;;;;;;1.13;0.90;;;13.60;58.00;;;;;;5013392;28;20922;-42
2020/12/24 02:55:07;;;;;;;2.00;0.80;;;13.70;57.60;;;;;;5014026;28;20209;-41
2020/12/24 02:57:33;;;;;;;2.20;0.80;;;13.60;57.70;;;;;;5011457;28;21017;-42
2020/12/24 03:00:02;;;;;;;1.37;0.70;;;13.80;57.80;;;;;;5013604;28;20284;-42
2020/12/24 03:02:28;;;;;;;3.83;0.70;;;14.00;57.10;;;;;;5013015;28;20491;-41
2020/12/24 03:04:53;;;;;;;1.10;0.80;;;14.10;56.80;;;;;;5013612;28;20429;-42
2020/12/24 03:07:19;;;;;;;1.23;0.70;;;14.10;56.50;;;;;;5012847;28;20200;-42
2020/12/24 03:09:44;;;;;;;1.23;0.60;;;14.20;56.30;;;;;;5013690;28;20342;-42
2020/12/24 03:12:11;;;;;;;0.80;0.60;;;14.00;55.70;;;;;;5012620;28;20228;-42
2020/12/24 03:14:37;;;;;;;0.90;0.70;;;13.90;54.80;;;;;;5013400;28;20186;-41
2020/12/24 03:17:03;;;;;;;1.23;0.70;;;13.70;54.70;;;;;;5012305;28;20449;-41
2020/12/24 03:19:28;;;;;;;0.83;0.70;;;13.80;55.80;;;;;;5013337;28;20485;-42
2020/12/24 03:21:54;;;;;;;0.80;0.70;;;13.90;55.80;;;;;;5012205;28;20244;-41
2020/12/24 03:24:19;;;;;;;0.93;0.70;;;13.80;56.20;;;;;;5012258;28;20237;-41
2020/12/24 03:26:45;;;;;;;3.80;0.60;;;13.70;56.70;;;;;;5012101;28;20198;-41
2020/12/24 03:29:10;;;;;;;0.73;0.67;;;13.60;56.70;;;;;;5013204;28;20244;-41
2020/12/24 03:31:36;;;;;;;2.93;0.60;;;13.20;56.70;;;;;;5012193;28;20210;-42
2020/12/24 03:34:02;;;;;;;1.23;0.60;;;13.30;57.10;;;;;;5013395;28;20194;-42
2020/12/24 03:36:28;;;;;;;4.60;0.80;;;13.40;57.10;;;;;;5012075;28;20277;-41
2020/12/24 03:38:53;;;;;;;0.70;0.60;;;13.20;56.80;;;;;;5012982;28;21054;-41
2020/12/24 03:41:19;;;;;;;1.07;0.70;;;12.70;57.30;;;;;;5012285;28;20272;-41
2020/12/24 03:43:44;;;;;;;0.90;0.70;;;12.80;58.60;;;;;;5012191;28;20194;-41
2020/12/24 03:46:10;;;;;;;0.70;0.70;;;13.00;58.60;;;;;;5012349;28;20624;-42
2020/12/24 03:48:36;;;;;;;0.60;0.60;;;13.10;58.20;;;;;;5009671;28;20238;-41
2020/12/24 03:51:01;;;;;;;2.63;0.97;;;13.20;58.20;;;;;;5011652;28;20197;-41
2020/12/24 03:53:27;;;;;;;1.73;0.77;;;13.40;57.70;;;;;;5012153;28;20233;-41
2020/12/24 03:55:52;;;;;;;0.70;0.50;;;13.50;57.80;;;;;;5012365;28;20194;-42
2020/12/24 03:58:18;;;;;;;1.63;0.70;;;13.70;57.60;;;;;;5011980;28;20687;-42
2020/12/24 04:00:44;;;;;;;0.97;0.60;;;13.80;57.40;;;;;;5012530;28;20268;-42
2020/12/24 04:03:09;;;;;;;0.77;0.60;;;13.80;57.20;;;;;;5012228;28;20190;-41
2020/12/24 04:05:35;;;;;;;0.70;0.50;;;13.80;57.40;;;;;;5012370;28;20198;-41
2020/12/24 04:08:01;;;;;;;1.17;0.50;;;13.90;57.40;;;;;;5011215;28;20248;-42
2020/12/24 04:10:26;;;;;;;1.00;0.70;;;13.90;57.20;;;;;;5012221;28;20204;-41
2020/12/24 04:12:52;;;;;;;1.37;0.77;;;13.90;57.60;;;;;;5011764;28;20198;-41
2020/12/24 04:15:17;;;;;;;0.77;0.77;;;14.00;57.40;;;;;;5011670;28;20198;-41
2020/12/24 04:17:43;;;;;;;0.80;0.80;;;13.80;57.70;;;;;;5010514;28;20244;-41
2020/12/24 04:20:09;;;;;;;0.60;0.57;;;13.50;58.00;;;;;;5011832;28;20244;-41
2020/12/24 04:22:34;;;;;;;1.50;0.90;;;13.20;59.00;;;;;;5011779;28;20198;-41
2020/12/24 04:25:00;;;;;;;1.33;0.77;;;13.30;59.50;;;;;;5012245;28;20202;-41
2020/12/24 04:27:26;;;;;;;1.90;0.70;;;13.30;59.40;;;;;;5010914;28;20277;-41
2020/12/24 04:29:52;;;;;;;1.37;0.80;;;13.20;59.10;;;;;;5011939;28;20429;-41
2020/12/24 04:32:17;;;;;;;0.90;0.70;;;13.20;59.20;;;;;;5011654;28;20427;-41
2020/12/24 04:34:43;;;;;;;1.07;0.80;;;13.10;59.10;;;;;;5012065;28;20259;-41
2020/12/24 04:37:08;;;;;;;0.87;0.60;;;13.10;59.40;;;;;;5011182;28;20222;-41
2020/12/24 04:39:34;;;;;;;1.87;0.70;;;13.20;59.30;;;;;;5011429;28;20271;-42
2020/12/24 04:42:00;;;;;;;3.40;0.90;;;13.20;59.00;;;;;;5010527;28;20194;-41
2020/12/24 04:44:29;;;;;;;0.60;0.60;;;13.00;59.10;;;;;;5011016;28;20221;-41
2020/12/24 04:46:55;;;;;;;1.90;0.60;;;13.00;59.40;;;;;;5010876;28;20194;-41
2020/12/24 04:49:24;;;;;;;2.00;0.90;;;13.00;59.80;;;;;;5009696;28;20461;-41
2020/12/24 04:51:49;;;;;;;1.10;0.67;;;12.80;60.20;;;;;;5023831;28;20435;-41
2020/12/24 04:54:16;;;;;;;1.07;0.70;;;12.60;61.40;;;;;;5030446;28;20436;-41
2020/12/24 04:56:41;;;;;;;0.77;0.60;;;12.40;62.10;;;;;;5030433;28;20430;-41
2020/12/24 04:59:07;;;;;;;2.10;0.80;;;12.60;62.70;;;;;;5031383;28;20483;-42
2020/12/24 05:01:33;;;;;;;1.80;1.00;;;12.50;62.20;;;;;;5030671;28;20268;-42
2020/12/24 05:03:59;;;;;;;0.70;0.70;;;12.40;62.80;;;;;;5031215;28;20189;-42
2020/12/24 05:06:25;;;;;;;0.60;0.60;;;12.30;62.00;;;;;;5030269;28;20431;-42
2020/12/24 05:08:58;;;;;;;0.60;0.60;;;12.20;61.70;;;;;;5029712;28;20568;-42
2020/12/24 05:11:25;;;;;;;1.33;0.70;;;12.20;61.60;;;;;;5030682;28;20433;-42
2020/12/24 05:13:51;;;;;;;1.67;0.63;;;12.50;61.00;;;;;;5031467;28;20447;-42
2020/12/24 05:16:17;;;;;;;0.77;0.63;;;12.60;60.30;;;;;;5029128;28;20954;-42
2020/12/24 05:18:43;;;;;;;1.33;0.60;;;12.70;60.00;;;;;;5030754;28;20487;-42
2020/12/24 05:21:09;;;;;;;0.60;0.50;;;12.90;59.50;;;;;;5031004;28;20661;-42
2020/12/24 05:23:34;;;;;;;0.70;0.60;;;13.10;59.40;;;;;;5030544;28;20215;-42
2020/12/24 05:26:00;;;;;;;0.60;0.60;;;13.10;59.10;;;;;;5030475;28;20454;-42
2020/12/24 05:28:27;;;;;;;0.63;0.60;;;12.90;58.40;;;;;;5030424;28;20198;-42
2020/12/24 05:30:54;;;;;;;1.50;0.60;;;13.00;58.70;;;;;;5031145;28;20247;-42
2020/12/24 05:33:31;;;;;;;0.50;0.50;;;12.80;58.60;;;;;;5030538;28;20482;-42
2020/12/24 05:36:25;;;;;;;0.50;0.50;;;12.70;58.70;;;;;;5028759;28;20475;-42
2020/12/24 05:38:51;;;;;;;0.70;0.70;;;12.80;58.60;;;;;;5031181;28;20530;-42
2020/12/24 05:41:30;;;;;;;2.63;0.90;;;12.60;58.40;;;;;;5030480;28;20424;-42
2020/12/24 05:44:00;;;;;;;2.70;0.70;;;12.60;58.70;;;;;;5030643;28;20424;-42
2020/12/24 05:46:38;;;;;;;1.63;0.70;;;12.70;58.60;;;;;;5020885;28;20429;-42
2020/12/24 05:49:09;;;;;;;0.77;0.60;;;12.80;58.40;;;;;;5004339;28;20481;-42
2020/12/24 05:51:34;;;;;;;0.70;0.70;;;12.80;58.20;;;;;;5010571;28;20477;-42
2020/12/24 05:54:00;;;;;;;1.17;0.67;;;12.80;58.20;;;;;;5011006;28;20421;-42
2020/12/24 05:56:26;;;;;;;0.53;0.53;;;12.70;58.10;;;;;;5009833;28;20221;-42
2020/12/24 05:58:53;;;;;;;0.60;0.60;;;12.70;58.80;;;;;;5011026;28;20484;-42
2020/12/24 06:01:20;;;;;;;2.60;0.70;;;12.70;58.50;;;;;;5010667;28;20205;-42
2020/12/24 06:04:02;;;;;;;0.83;0.70;;;12.90;58.30;;;;;;5009197;28;20425;-42
2020/12/24 06:07:01;;;;;;;1.33;1.23;;;12.90;58.00;;;;;;5011740;28;20448;-42
2020/12/24 06:09:36;;;;;;;3.13;0.97;;;12.90;57.60;;;;;;5014667;28;20455;-42
2020/12/24 06:12:19;;;;;;;0.70;0.60;;;13.00;57.60;;;;;;5032611;28;20838;-42
2020/12/24 06:14:50;;;;;;;1.83;0.83;;;13.20;57.30;;;;;;5034067;28;20825;-43
2020/12/24 06:17:18;;;;;;;1.87;0.80;;;13.20;57.10;;;;;;5033473;28;20424;-43
2020/12/24 06:19:44;;;;;;;1.90;0.80;;;13.20;56.90;;;;;;5034122;28;20625;-42
2020/12/24 06:22:10;;;;;;;2.37;1.47;;;13.30;56.50;;;;;;5033586;28;20503;-42
2020/12/24 06:24:43;;;;;;;5.70;0.90;;;13.10;56.40;;;;;;5034326;28;20427;-42
2020/12/24 06:27:29;;;;;;;2.93;0.90;;;13.20;56.80;;;;;;5033339;28;20487;-42
2020/12/24 06:30:25;;;;;;;2.93;1.20;;;13.40;56.70;;;;;;5032450;28;20951;-42
2020/12/24 06:32:53;;;;;;;2.73;1.10;;;13.50;56.50;;;;;;5033490;28;20431;-42
2020/12/24 06:35:39;;;;;;;1.53;0.90;;;13.40;56.30;;;;;;5034078;28;20432;-42
2020/12/24 06:38:07;;;;;;;3.63;0.90;;;13.40;56.30;;;;;;5033362;28;20439;-42
2020/12/24 06:40:40;;;;;;;1.57;0.93;;;13.40;56.30;;;;;;5033696;28;20860;-42
2020/12/24 06:43:08;;;;;;;1.07;0.70;;;13.30;56.40;;;;;;5033430;28;21011;-42
2020/12/24 06:45:38;;;;;;;3.20;0.80;;;13.30;56.40;;;;;;5031772;28;20424;-42
2020/12/24 06:48:16;;;;;;;4.63;1.10;;;13.00;56.70;;;;;;5011454;28;20948;-42
2020/12/24 06:50:46;;;;;;;1.93;0.80;;;13.00;56.90;;;;;;5013583;28;20437;-42
2020/12/24 06:53:32;;;;;;;2.10;0.80;;;12.80;56.90;;;;;;5013495;28;20429;-42
2020/12/24 06:56:25;;;;;;;3.70;1.03;;;12.80;57.60;;;;;;5011731;28;20859;-42
2020/12/24 06:58:54;;;;;;;1.30;0.90;;;12.90;57.20;;;;;;5013767;28;20488;-42
2020/12/24 07:01:31;;;;;;;2.20;0.90;;;12.80;57.10;;;;;;5013061;28;20467;-42
2020/12/24 07:04:03;;;;;;;2.63;1.00;;;12.90;57.30;;;;;;5013543;28;20456;-42
2020/12/24 07:06:41;;;;;;;0.93;0.73;;;12.80;56.80;;;;;;5012669;28;20981;-42
2020/12/24 07:09:11;;;;;;;1.23;0.77;;;12.90;56.80;;;;;;5013673;28;20506;-42
2020/12/24 07:11:44;;;;;;;2.07;0.87;;;12.70;56.50;;;;;;5011364;28;20468;-42
2020/12/24 07:14:30;;;;;;;0.93;0.80;;;12.70;56.70;;;;;;5013511;28;20473;-42
2020/12/24 07:16:57;;;;;;;2.13;1.00;;;12.70;56.90;;;;;;5012130;28;20461;-42
2020/12/24 07:19:23;;;;;;;1.20;0.83;;;12.70;57.00;;;;;;5012949;28;20846;-42
2020/12/24 07:21:51;;;;;;;5.83;1.37;;;12.90;56.90;;;;;;5012799;28;20418;-42
2020/12/24 07:24:26;;;;;;;1.27;0.93;;;12.90;56.80;;;;;;5011925;28;20428;-42
2020/12/24 07:26:56;;;;;;;2.10;0.90;;;12.90;56.50;;;;;;5012396;28;20432;-42
2020/12/24 07:29:22;;;;;;;4.73;1.13;;;12.90;56.40;;;;;;5013188;28;20892;-42
2020/12/24 07:31:49;;;;;;;4.23;1.47;;;12.90;56.10;;;;;;5013037;28;20460;-42
2020/12/24 07:34:20;;;;;;;3.30;1.40;;;12.60;56.10;;;;;;5012899;28;20432;-42
2020/12/24 07:36:46;;;;;;;2.60;0.83;;;12.60;56.50;;;;;;5012100;28;20913;-42
2020/12/24 07:39:12;;;;;;;4.53;1.20;;;12.60;56.50;;;;;;5012973;28;21363;-42
2020/12/24 07:41:40;;;;;;;2.53;1.00;;;12.60;56.50;;;;;;5012571;28;20433;-42
2020/12/24 07:44:10;;;;;;;2.57;0.80;;;12.60;56.10;;;;;;5012815;28;20185;-42
2020/12/24 07:46:36;;;;;;;2.53;1.20;;;12.80;56.10;;;;;;5011951;28;20443;-42
2020/12/24 07:49:03;;;;;;;8.27;1.60;;;12.90;55.90;;;;;;5004631;28;20967;-42
2020/12/24 07:51:29;;;;;;;2.00;0.80;;;12.90;55.20;;;;;;5012353;28;20190;-42
2020/12/24 07:54:15;;;;;;;2.83;1.20;;;13.00;55.30;;;;;;5012837;28;20475;-42
2020/12/24 07:56:45;;;;;;;2.57;1.33;;;12.80;54.90;;;;;;5011547;28;20272;-42
2020/12/24 07:59:12;;;;;;;3.20;1.10;;;12.70;55.00;;;;;;5012684;28;20520;-42
2020/12/24 08:01:38;;;;;;;2.67;1.10;;;12.90;55.10;;;;;;5012058;28;20440;-42
2020/12/24 08:04:05;;;;;;;4.50;1.20;;;12.80;54.60;;;;;;5012348;28;20429;-42
2020/12/24 08:06:32;;;;;;;3.40;1.20;;;13.00;54.70;;;;;;5011602;28;20208;-42
2020/12/24 08:09:19;;;;;;;3.00;1.10;;;12.90;54.00;;;;;;5012742;28;20425;-42
2020/12/24 08:11:58;;;;;;;5.50;1.07;;;12.60;54.10;;;;;;5011768;28;20440;-42
2020/12/24 08:14:28;;;;;;;3.27;1.03;;;12.60;54.70;;;;;;5012049;28;20933;-42
2020/12/24 08:17:05;;;;;;;3.03;1.20;;;12.30;54.50;;;;;;5009828;28;20855;-42
2020/12/24 08:19:43;;;;;;;2.77;1.17;;;12.40;54.70;;;;;;5012076;28;20476;-42
2020/12/24 08:22:29;;;;;;;2.50;1.10;;;12.50;54.50;;;;;;5011744;28;20436;-42
2020/12/24 08:24:55;;;;;;;6.10;1.30;;;12.60;54.50;;;;;;5012176;28;20436;-42
2020/12/24 08:27:21;;;;;;;4.47;3.30;;;12.00;54.00;;;;;;5011423;28;20947;-42
2020/12/24 08:29:48;;;;;;;4.70;1.60;;;12.00;54.50;;;;;;5012181;28;20428;-42
2020/12/24 08:32:15;;;;;;;4.23;1.40;;;12.10;54.90;;;;;;5011623;28;20428;-41
2020/12/24 08:34:41;;;;;;;1.47;1.10;;;12.00;54.70;;;;;;5011916;28;20792;-42
2020/12/24 08:37:06;;;;;;;2.47;0.73;;;11.60;54.90;;;;;;5011254;28;20421;-42
2020/12/24 08:39:32;;;;;;;2.70;1.03;;;11.40;55.50;;;;;;5012198;28;20229;-42
2020/12/24 08:42:05;;;;;;;3.13;2.00;;;11.40;55.70;;;;;;5011438;28;20650;-42
2020/12/24 08:44:31;;;;;;;3.83;1.30;;;11.40;55.90;;;;;;5010574;28;20433;-42
2020/12/24 08:47:05;;;;;;;1.33;0.90;;;11.20;55.50;;;;;;5010769;28;20955;-42
2020/12/24 08:49:31;;;;;;;6.73;1.20;;;11.10;55.90;;;;;;5003344;28;20758;-42
2020/12/24 08:52:11;;;;;;;1.40;0.90;;;11.00;56.30;;;;;;5011019;28;20980;-42
2020/12/24 08:54:36;;;;;;;1.57;1.20;;;11.00;56.60;;;;;;5011443;28;20523;-42
2020/12/24 08:57:03;;;;;;;1.47;1.17;;;10.90;56.50;;;;;;5010825;28;20639;-42
2020/12/24 08:59:29;;;;;;;6.07;1.10;;;10.80;57.10;;;;;;5011765;28;20221;-42
2020/12/24 09:01:56;;;;;;;3.70;1.10;;;10.90;57.40;;;;;;5010788;28;20431;-42
2020/12/24 09:04:22;;;;;;;3.20;1.10;;;11.00;56.90;;;;;;5011598;28;20206;-42
2020/12/24 09:06:47;;;;;;;1.83;0.93;;;10.90;56.70;;;;;;5010556;28;20847;-42
2020/12/24 09:09:24;;;;;;;1.00;0.70;;;11.00;57.20;;;;;;5009797;28;20194;-42
2020/12/24 09:11:51;;;;;;;1.17;0.80;;;11.10;57.20;;;;;;5011332;28;20189;-42
2020/12/24 09:14:22;;;;;;;8.83;1.03;;;11.00;56.90;;;;;;5011530;28;20457;-42
2020/12/24 09:16:55;;;;;;;2.20;1.10;;;10.80;57.40;;;;;;5010442;28;20429;-42
2020/12/24 09:19:22;;;;;;;1.83;0.90;;;11.00;57.80;;;;;;5011420;28;21706;-42
2020/12/24 09:21:52;;;;;;;1.70;0.90;;;11.20;57.50;;;;;;5011021;28;20444;-42
2020/12/24 09:24:18;;;;;;;1.67;0.70;;;11.10;57.10;;;;;;5011471;28;20432;-42
2020/12/24 09:26:46;;;;;;;2.37;1.27;;;11.20;57.50;;;;;;5010387;28;20823;-42
2020/12/24 09:29:12;;;;;;;2.70;0.90;;;11.40;57.50;;;;;;5011244;28;20224;-42
2020/12/24 09:31:38;;;;;;;0.93;0.70;;;11.50;57.10;;;;;;5010977;28;20528;-42
2020/12/24 09:34:03;;;;;;;1.57;0.90;;;11.40;57.00;;;;;;5011182;28;20193;-42
2020/12/24 09:36:29;;;;;;;1.83;1.20;;;11.60;57.10;;;;;;5008444;28;20440;-42
2020/12/24 09:38:55;;;;;;;1.90;0.97;;;11.60;56.90;;;;;;5011088;28;20486;-42
2020/12/24 09:41:20;;;;;;;1.83;0.80;;;11.50;57.10;;;;;;5012365;28;20654;-42
2020/12/24 09:43:47;;;;;;;1.30;0.90;;;11.40;57.20;;;;;;5015281;28;20193;-42
2020/12/24 09:46:16;;;;;;;3.63;1.07;;;11.40;57.20;;;;;;5014424;28;20256;-41
2020/12/24 09:48:42;;;;;;;1.30;0.77;;;11.60;57.30;;;;;;5006474;28;20480;-42
2020/12/24 09:51:08;;;;;;;3.50;1.10;;;11.80;56.70;;;;;;5015086;28;20428;-42
2020/12/24 09:53:33;;;;;;;1.87;0.80;;;11.80;56.40;;;;;;5014421;28;20186;-42
2020/12/24 09:55:59;;;;;;;2.40;0.93;;;11.80;56.50;;;;;;5014825;28;20424;-42
2020/12/24 09:58:24;;;;;;;0.87;0.70;;;11.80;56.50;;;;;;5014178;28;20292;-42
2020/12/24 10:00:50;;;;;;;6.00;0.83;;;11.80;56.20;;;;;;5015031;28;20190;-42
2020/12/24 10:03:16;;;;;;;2.17;0.93;;;11.60;56.40;;;;;;5025768;28;20232;-42
2020/12/24 10:05:41;;;;;;;4.97;0.93;;;11.70;56.60;;;;;;5033840;28;20188;-42
2020/12/24 10:08:07;;;;;;;4.63;1.37;;;11.50;56.10;;;;;;5033920;28;20668;-42
2020/12/24 10:10:32;;;;;;;2.87;1.30;;;11.10;56.60;;;;;;5034545;28;20239;-42
2020/12/24 10:12:58;;;;;;;1.93;0.90;;;11.00;57.30;;;;;;5033871;28;20729;-42
2020/12/24 10:15:23;;;;;;;1.50;1.00;;;11.10;57.40;;;;;;5034101;28;20200;-42
2020/12/24 10:17:49;;;;;;;1.33;0.80;;;11.40;57.60;;;;;;5033797;28;20559;-42
2020/12/24 10:20:14;;;;;;;6.70;1.37;;;11.70;57.10;;;;;;5034202;28;20308;-42
2020/12/24 10:22:40;;;;;;;0.90;0.80;;;11.60;56.40;;;;;;5033763;28;20255;-42
2020/12/24 10:25:06;;;;;;;3.27;1.63;;;11.80;56.50;;;;;;5034173;28;20194;-42
2020/12/24 10:27:31;;;;;;;2.73;1.17;;;11.60;56.20;;;;;;5033372;28;20224;-42
2020/12/24 10:29:57;;;;;;;1.80;1.27;;;11.70;56.60;;;;;;5032427;28;20255;-42
2020/12/24 10:32:22;;;;;;;11.63;2.50;;;11.80;56.70;;;;;;5033556;28;20204;-42
2020/12/24 10:34:48;;;;;;;1.93;1.00;;;11.90;55.90;;;;;;5034106;28;20228;-42
2020/12/24 10:37:14;;;;;;;1.90;1.17;;;11.90;56.00;;;;;;5033166;28;20205;-42
2020/12/24 10:39:40;;;;;;;2.80;1.13;;;12.10;56.10;;;;;;5033888;28;20483;-42
2020/12/24 10:42:05;;;;;;;2.80;1.13;;;12.10;55.90;;;;;;5033325;28;20200;-42
2020/12/24 10:44:31;;;;;;;2.07;0.90;;;11.90;56.00;;;;;;5033469;28;20201;-42
2020/12/24 10:46:57;;;;;;;4.93;0.90;;;12.00;56.10;;;;;;5019816;28;20560;-42
2020/12/24 10:49:23;;;;;;;3.73;1.20;;;11.90;55.90;;;;;;5005646;28;20234;-42
2020/12/24 10:51:48;;;;;;;2.60;1.00;;;12.00;56.10;;;;;;5012935;28;20417;-42
2020/12/24 10:54:14;;;;;;;1.90;0.93;;;12.20;56.30;;;;;;5013290;28;20230;-42
2020/12/24 10:56:40;;;;;;;2.87;0.70;;;12.00;55.70;;;;;;5011383;28;20243;-42
2020/12/24 10:59:06;;;;;;;2.00;1.00;;;12.00;56.20;;;;;;5013611;28;20490;-42
2020/12/24 11:01:31;;;;;;;3.50;0.77;;;12.00;56.30;;;;;;5013192;28;20201;-42
2020/12/24 11:03:57;;;;;;;3.27;0.90;;;12.00;56.10;;;;;;5013567;28;20209;-42
2020/12/24 11:06:24;;;;;;;3.03;0.80;;;12.00;56.00;;;;;;5013028;28;20190;-42
2020/12/24 11:08:50;;;;;;;0.80;0.80;;;12.10;56.20;;;;;;5013583;28;20202;-42
2020/12/24 11:11:17;;;;;;;1.20;0.90;;;11.70;56.10;;;;;;5013281;28;20431;-42
2020/12/24 11:13:43;;;;;;;0.70;0.60;;;11.90;56.80;;;;;;5013363;28;20512;-42
2020/12/24 11:16:10;;;;;;;1.03;0.80;;;11.90;56.40;;;;;;5013332;28;20429;-42
2020/12/24 11:18:37;;;;;;;2.80;0.70;;;12.10;56.40;;;;;;5012557;28;20470;-42
2020/12/24 11:21:03;;;;;;;1.73;0.77;;;11.80;56.40;;;;;;5013308;28;20444;-42
2020/12/24 11:23:30;;;;;;;0.83;0.60;;;11.50;56.60;;;;;;5011228;28;20463;-42
2020/12/24 11:25:55;;;;;;;0.83;0.70;;;11.80;56.90;;;;;;5013040;28;20528;-42
2020/12/24 11:28:21;;;;;;;2.77;1.20;;;11.80;56.50;;;;;;5012491;28;20956;-42
2020/12/24 11:30:47;;;;;;;1.73;0.80;;;11.90;56.20;;;;;;5013530;28;20198;-42
2020/12/24 11:33:12;;;;;;;2.27;0.73;;;12.10;56.10;;;;;;5012667;28;20210;-42
2020/12/24 11:35:38;;;;;;;1.40;0.93;;;11.80;56.10;;;;;;5012704;28;20284;-42
2020/12/24 11:38:03;;;;;;;0.70;0.60;;;11.90;56.40;;;;;;5012691;28;20194;-42
2020/12/24 11:40:29;;;;;;;1.93;1.00;;;12.00;56.50;;;;;;5012947;28;20226;-42
2020/12/24 11:42:55;;;;;;;0.60;0.60;;;12.20;56.50;;;;;;5012545;28;20190;-42
2020/12/24 11:45:21;;;;;;;0.73;0.60;;;12.50;55.70;;;;;;5012495;28;20320;-42
2020/12/24 11:47:46;;;;;;;1.07;0.70;;;12.70;55.00;;;;;;5012388;28;20452;-42
2020/12/24 11:50:12;;;;;;;0.67;0.60;;;12.80;54.20;;;;;;5004394;28;20248;-42
2020/12/24 11:52:38;;;;;;;1.57;0.80;;;12.80;54.10;;;;;;5012176;28;20209;-42
2020/12/24 11:55:06;;;;;;;0.80;0.80;;;12.90;53.60;;;;;;5012702;28;20196;-42
2020/12/24 11:57:35;;;;;;;1.73;0.77;;;13.30;53.90;;;;;;5012118;28;20620;-42
2020/12/24 12:00:01;;;;;;;1.47;0.90;;;13.10;53.00;;;;;;5012476;28;20491;-42
2020/12/24 12:02:26;;;;;;;1.20;0.63;;;12.90;53.80;;;;;;5012002;28;20531;-42
2020/12/24 12:04:52;;;;;;;1.33;0.97;;;12.90;53.70;;;;;;5012198;28;20232;-42
2020/12/24 12:07:17;;;;;;;0.80;0.60;;;12.80;53.70;;;;;;5011636;28;20241;-43
2020/12/24 12:09:43;;;;;;;6.00;0.80;;;13.20;54.10;;;;;;5012519;28;20201;-42
2020/12/24 12:12:09;;;;;;;0.80;0.80;;;13.40;53.50;;;;;;5011798;28;20617;-42
2020/12/24 12:14:34;;;;;;;0.60;0.60;;;13.50;53.30;;;;;;5012483;28;20189;-42
2020/12/24 12:17:00;;;;;;;2.53;0.97;;;13.70;53.00;;;;;;5009756;28;20202;-42
2020/12/24 12:19:26;;;;;;;0.70;0.70;;;13.90;53.00;;;;;;5012280;28;20320;-42
2020/12/24 12:21:52;;;;;;;1.20;0.70;;;14.00;51.80;;;;;;5011762;28;20429;-42
2020/12/24 12:24:18;;;;;;;1.43;0.80;;;13.80;52.00;;;;;;5012312;28;20197;-42
2020/12/24 12:26:44;;;;;;;1.10;1.03;;;13.50;52.10;;;;;;5011013;28;20213;-42
2020/12/24 12:29:10;;;;;;;0.73;0.70;;;13.80;52.60;;;;;;5012178;28;20579;-42
2020/12/24 12:31:36;;;;;;;1.90;0.70;;;13.70;51.70;;;;;;5011583;28;20441;-43
2020/12/24 12:34:02;;;;;;;0.60;0.50;;;13.60;52.30;;;;;;5012089;28;20432;-42
2020/12/24 12:36:27;;;;;;;1.43;0.60;;;13.50;52.50;;;;;;5010893;28;20200;-42
2020/12/24 12:38:53;;;;;;;0.63;0.60;;;13.80;52.70;;;;;;5011911;28;20689;-42
2020/12/24 12:41:20;;;;;;;1.53;0.70;;;13.90;52.00;;;;;;5011424;28;20186;-42
2020/12/24 12:43:46;;;;;;;0.60;0.50;;;14.00;51.50;;;;;;5010080;28;20588;-42
2020/12/24 12:46:18;;;;;;;0.87;0.60;;;13.70;51.80;;;;;;5011362;28;20555;-43
2020/12/24 12:48:43;;;;;;;1.23;0.70;;;13.40;52.50;;;;;;5004975;28;20480;-43
2020/12/24 12:51:09;;;;;;;0.60;0.50;;;13.30;52.50;;;;;;5011647;28;20807;-42